Nil Demir — 3ELP5 — position and weather

sailwx.info

Track history (hours):
 
Tides and Currents Weather Stations Pressure Air Temp Water Temp Dewpoint Dewpoint Depression Visibility Wind Speed Wind Dir Waves Ship Positions

Nil Demir

Last reported at 2017-Dec-27 00:19 UTC. Time now 2018-Jan-23 23:54 UTC.
Position N 45°10' E 036°29'.
Warning: this ship's position is 27 days out of date.

Length 93 m.

Type: Cargo ship. MMSI: 354692000.

Date/timePositionNaut miles runAvg speedWind from/ knotsBaromVisibWave heightAir tempDewpointWater temp
2017-Dec-27 00:19N 45°10' E 036°29'3 8.9
2017-Dec-27 00:00N 45°13' E 036°28'4 7.8
2017-Dec-26 23:29N 45°17' E 036°28'4 7.6
2017-Dec-26 23:00N 45°19' E 036°32'4 8.3
2017-Dec-26 22:30N 45°21' E 036°38'3 6.7
2017-Dec-26 22:00N 45°24' E 036°40'3 6.4
2017-Dec-26 21:30N 45°27' E 036°41'3 5.9
2017-Dec-26 21:00N 45°29' E 036°39'1 1.1
2017-Dec-26 20:26N 45°30' E 036°38'0 0.0
2017-Dec-26 19:59N 45°30' E 036°38'0 0.0
2017-Dec-26 19:29N 45°30' E 036°38'0 0.0
2017-Dec-26 18:59N 45°30' E 036°38'0 0.0
2017-Dec-26 18:26N 45°30' E 036°38'0 0.0
2017-Dec-26 17:59N 45°30' E 036°38'0 0.0
2017-Dec-26 17:29N 45°30' E 036°38'0 0.0
2017-Dec-26 16:59N 45°30' E 036°38'0 0.0
2017-Dec-26 16:29N 45°30' E 036°38'0 0.0
2017-Dec-26 15:59N 45°30' E 036°38'0 0.0
2017-Dec-26 15:26N 45°30' E 036°38'0 0.0
2017-Dec-26 14:59N 45°30' E 036°38'0 0.0
2017-Dec-26 14:26N 45°30' E 036°38'0 0.0
2017-Dec-26 13:59N 45°30' E 036°38'0 0.0
2017-Dec-26 13:26N 45°30' E 036°38'0 0.0
2017-Dec-26 12:59N 45°30' E 036°38'0 0.0
2017-Dec-26 12:29N 45°30' E 036°38'0 0.0
2017-Dec-26 11:59N 45°30' E 036°38'0 0.0
2017-Dec-26 11:29N 45°30' E 036°38'0 0.0
2017-Dec-26 10:59N 45°30' E 036°38'0 0.0
2017-Dec-26 10:29N 45°30' E 036°38'0 0.0
2017-Dec-26 09:59N 45°30' E 036°38'0 0.0
2017-Dec-26 09:29N 45°30' E 036°38'0 0.0
2017-Dec-26 08:59N 45°30' E 036°38'0 0.0
2017-Dec-26 08:23N 45°30' E 036°38'0 0.0
2017-Dec-26 07:56N 45°30' E 036°38'0 0.0
2017-Dec-26 07:29N 45°30' E 036°38'0 0.0
2017-Dec-26 06:56N 45°30' E 036°38'0 0.0
2017-Dec-26 06:29N 45°30' E 036°38'0 0.0
2017-Dec-26 05:59N 45°30' E 036°38'0 0.0
2017-Dec-26 05:29N 45°30' E 036°38'0 0.0
2017-Dec-26 04:59N 45°30' E 036°38'0 0.0
2017-Dec-26 04:28N 45°30' E 036°38'0 0.0
2017-Dec-26 03:58N 45°30' E 036°38'0 0.0
2017-Dec-26 03:28N 45°30' E 036°38'0 0.0
2017-Dec-26 02:58N 45°30' E 036°38'0 0.0
2017-Dec-26 02:28N 45°30' E 036°38'0 0.0
2017-Dec-26 01:58N 45°30' E 036°38'0 0.0
2017-Dec-26 01:25N 45°30' E 036°38'0 0.0
2017-Dec-26 00:58N 45°30' E 036°38'0 0.0
2017-Dec-26 00:28N 45°30' E 036°38'0 0.0
2017-Dec-25 23:58N 45°30' E 036°38'0 0.0
2017-Dec-25 23:28N 45°30' E 036°38'0 0.0
2017-Dec-25 22:58N 45°30' E 036°38'0 0.0
2017-Dec-25 22:28N 45°30' E 036°38'0 0.0
2017-Dec-25 21:58N 45°30' E 036°38'0 0.0
2017-Dec-25 21:28N 45°30' E 036°38'0 0.0
2017-Dec-25 20:58N 45°30' E 036°38'0 0.0
2017-Dec-25 20:28N 45°30' E 036°38'0 0.0
2017-Dec-25 19:55N 45°30' E 036°38'0 0.0
2017-Dec-25 19:28N 45°30' E 036°38'0 0.0
2017-Dec-25 18:58N 45°30' E 036°38'0 0.0
2017-Dec-25 18:28N 45°30' E 036°38'0 0.0
2017-Dec-25 17:58N 45°30' E 036°38'0 0.0
2017-Dec-25 17:28N 45°30' E 036°38'0 0.0
2017-Dec-25 16:52N 45°30' E 036°38'0 0.0
2017-Dec-25 16:28N 45°30' E 036°38'0 0.0
2017-Dec-25 15:58N 45°30' E 036°38'0 0.0
2017-Dec-25 15:28N 45°30' E 036°38'0 0.0
2017-Dec-25 14:58N 45°30' E 036°38'0 0.0
2017-Dec-25 14:28N 45°30' E 036°38'0 0.0
2017-Dec-25 13:58N 45°30' E 036°38'0 0.0
2017-Dec-25 13:28N 45°30' E 036°38'0 0.0
2017-Dec-25 12:58N 45°30' E 036°38'0 0.1
2017-Dec-25 12:28N 45°30' E 036°38'2 4.8
2017-Dec-25 12:00N 45°30' E 036°41'4 8.2
2017-Dec-25 11:30N 45°31' E 036°47'  
Track history (hours):
 
Tides and Currents Weather Stations Pressure Air Temp Water Temp Dewpoint Dewpoint Depression Visibility Wind Speed Wind Dir Waves Ship Positions

Nil Demir

Last reported at 2017-Dec-27 00:19 UTC. Time now 2018-Jan-23 23:54 UTC.
Position N 45°10' E 036°29'.
Warning: this ship's position is 27 days out of date.

Length 93 m.

Type: Cargo ship. MMSI: 354692000.

Date/timePositionNaut miles runAvg speedWind from/ knotsBaromVisibWave heightAir tempDewpointWater temp
2017-Dec-27 00:19N 45°10' E 036°29'3 8.9
2017-Dec-27 00:00N 45°13' E 036°28'4 7.8
2017-Dec-26 23:29N 45°17' E 036°28'4 7.6
2017-Dec-26 23:00N 45°19' E 036°32'4 8.3
2017-Dec-26 22:30N 45°21' E 036°38'3 6.7
2017-Dec-26 22:00N 45°24' E 036°40'3 6.4
2017-Dec-26 21:30N 45°27' E 036°41'3 5.9
2017-Dec-26 21:00N 45°29' E 036°39'1 1.1
2017-Dec-26 20:26N 45°30' E 036°38'0 0.0
2017-Dec-26 19:59N 45°30' E 036°38'0 0.0
2017-Dec-26 19:29N 45°30' E 036°38'0 0.0
2017-Dec-26 18:59N 45°30' E 036°38'0 0.0
2017-Dec-26 18:26N 45°30' E 036°38'0 0.0
2017-Dec-26 17:59N 45°30' E 036°38'0 0.0
2017-Dec-26 17:29N 45°30' E 036°38'0 0.0
2017-Dec-26 16:59N 45°30' E 036°38'0 0.0
2017-Dec-26 16:29N 45°30' E 036°38'0 0.0
2017-Dec-26 15:59N 45°30' E 036°38'0 0.0
2017-Dec-26 15:26N 45°30' E 036°38'0 0.0
2017-Dec-26 14:59N 45°30' E 036°38'0 0.0
2017-Dec-26 14:26N 45°30' E 036°38'0 0.0
2017-Dec-26 13:59N 45°30' E 036°38'0 0.0
2017-Dec-26 13:26N 45°30' E 036°38'0 0.0
2017-Dec-26 12:59N 45°30' E 036°38'0 0.0
2017-Dec-26 12:29N 45°30' E 036°38'0 0.0
2017-Dec-26 11:59N 45°30' E 036°38'0 0.0
2017-Dec-26 11:29N 45°30' E 036°38'0 0.0
2017-Dec-26 10:59N 45°30' E 036°38'0 0.0
2017-Dec-26 10:29N 45°30' E 036°38'0 0.0
2017-Dec-26 09:59N 45°30' E 036°38'0 0.0
2017-Dec-26 09:29N 45°30' E 036°38'0 0.0
2017-Dec-26 08:59N 45°30' E 036°38'0 0.0
2017-Dec-26 08:23N 45°30' E 036°38'0 0.0
2017-Dec-26 07:56N 45°30' E 036°38'0 0.0
2017-Dec-26 07:29N 45°30' E 036°38'0 0.0
2017-Dec-26 06:56N 45°30' E 036°38'0 0.0
2017-Dec-26 06:29N 45°30' E 036°38'0 0.0
2017-Dec-26 05:59N 45°30' E 036°38'0 0.0
2017-Dec-26 05:29N 45°30' E 036°38'0 0.0
2017-Dec-26 04:59N 45°30' E 036°38'0 0.0
2017-Dec-26 04:28N 45°30' E 036°38'0 0.0
2017-Dec-26 03:58N 45°30' E 036°38'0 0.0
2017-Dec-26 03:28N 45°30' E 036°38'0 0.0
2017-Dec-26 02:58N 45°30' E 036°38'0 0.0
2017-Dec-26 02:28N 45°30' E 036°38'0 0.0
2017-Dec-26 01:58N 45°30' E 036°38'0 0.0
2017-Dec-26 01:25N 45°30' E 036°38'0 0.0
2017-Dec-26 00:58N 45°30' E 036°38'0 0.0
2017-Dec-26 00:28N 45°30' E 036°38'0 0.0
2017-Dec-25 23:58N 45°30' E 036°38'0 0.0
2017-Dec-25 23:28N 45°30' E 036°38'0 0.0
2017-Dec-25 22:58N 45°30' E 036°38'0 0.0
2017-Dec-25 22:28N 45°30' E 036°38'0 0.0
2017-Dec-25 21:58N 45°30' E 036°38'0 0.0
2017-Dec-25 21:28N 45°30' E 036°38'0 0.0
2017-Dec-25 20:58N 45°30' E 036°38'0 0.0
2017-Dec-25 20:28N 45°30' E 036°38'0 0.0
2017-Dec-25 19:55N 45°30' E 036°38'0 0.0
2017-Dec-25 19:28N 45°30' E 036°38'0 0.0
2017-Dec-25 18:58N 45°30' E 036°38'0 0.0
2017-Dec-25 18:28N 45°30' E 036°38'0 0.0
2017-Dec-25 17:58N 45°30' E 036°38'0 0.0
2017-Dec-25 17:28N 45°30' E 036°38'0 0.0
2017-Dec-25 16:52N 45°30' E 036°38'0 0.0
2017-Dec-25 16:28N 45°30' E 036°38'0 0.0
2017-Dec-25 15:58N 45°30' E 036°38'0 0.0
2017-Dec-25 15:28N 45°30' E 036°38'0 0.0
2017-Dec-25 14:58N 45°30' E 036°38'0 0.0
2017-Dec-25 14:28N 45°30' E 036°38'0 0.0
2017-Dec-25 13:58N 45°30' E 036°38'0 0.0
2017-Dec-25 13:28N 45°30' E 036°38'0 0.0
2017-Dec-25 12:58N 45°30' E 036°38'0 0.1
2017-Dec-25 12:28N 45°30' E 036°38'2 4.8
2017-Dec-25 12:00N 45°30' E 036°41'4 8.2
2017-Dec-25 11:30N 45°31' E 036°47'  

Dump ship's entire track history